sensor_id;sensor_type;location;lat;lon;timestamp;temperature;humidity
52509;DHT22;38420;53.150;6.370;2022-07-04T00:02:00;13.00;99.90
52509;DHT22;38420;53.150;6.370;2022-07-04T00:04:26;13.10;99.90
52509;DHT22;38420;53.150;6.370;2022-07-04T00:06:51;13.00;99.90
52509;DHT22;38420;53.150;6.370;2022-07-04T00:09:16;13.00;99.90
52509;DHT22;38420;53.150;6.370;2022-07-04T00:11:42;13.00;99.90
52509;DHT22;38420;53.150;6.370;2022-07-04T00:14:07;13.00;99.90
52509;DHT22;38420;53.150;6.370;2022-07-04T00:16:33;13.00;99.90
52509;DHT22;38420;53.150;6.370;2022-07-04T00:19:00;12.90;99.90
52509;DHT22;38420;53.150;6.370;2022-07-04T00:21:26;13.00;99.90
52509;DHT22;38420;53.150;6.370;2022-07-04T00:23:51;13.00;99.90
52509;DHT22;38420;53.150;6.370;2022-07-04T00:26:17;12.90;99.90
52509;DHT22;38420;53.150;6.370;2022-07-04T00:28:42;12.90;99.90
52509;DHT22;38420;53.150;6.370;2022-07-04T00:31:08;12.90;99.90
52509;DHT22;38420;53.150;6.370;2022-07-04T00:33:33;12.90;99.90
52509;DHT22;38420;53.150;6.370;2022-07-04T00:35:59;12.90;99.90
52509;DHT22;38420;53.150;6.370;2022-07-04T00:38:24;12.80;99.90
52509;DHT22;38420;53.150;6.370;2022-07-04T00:40:50;12.70;99.90
52509;DHT22;38420;53.150;6.370;2022-07-04T00:43:22;12.70;99.90
52509;DHT22;38420;53.150;6.370;2022-07-04T00:45:48;12.60;99.90
52509;DHT22;38420;53.150;6.370;2022-07-04T00:48:14;12.60;99.90
52509;DHT22;38420;53.150;6.370;2022-07-04T00:50:47;12.60;99.90
52509;DHT22;38420;53.150;6.370;2022-07-04T00:53:20;12.50;99.90
52509;DHT22;38420;53.150;6.370;2022-07-04T00:55:46;12.50;99.90
52509;DHT22;38420;53.150;6.370;2022-07-04T00:58:12;12.50;99.90
52509;DHT22;38420;53.150;6.370;2022-07-04T01:00:38;12.50;99.90
52509;DHT22;38420;53.150;6.370;2022-07-04T01:03:03;12.50;99.90
52509;DHT22;38420;53.150;6.370;2022-07-04T01:05:29;12.40;99.90
52509;DHT22;38420;53.150;6.370;2022-07-04T01:07:54;12.40;99.90
52509;DHT22;38420;53.150;6.370;2022-07-04T01:10:20;12.40;99.90
52509;DHT22;38420;53.150;6.370;2022-07-04T01:12:45;12.30;99.90
52509;DHT22;38420;53.150;6.370;2022-07-04T01:15:11;12.30;99.90
52509;DHT22;38420;53.150;6.370;2022-07-04T01:17:36;12.30;99.90
52509;DHT22;38420;53.150;6.370;2022-07-04T01:20:02;12.50;99.90
52509;DHT22;38420;53.150;6.370;2022-07-04T01:22:28;12.30;99.90
52509;DHT22;38420;53.150;6.370;2022-07-04T01:24:53;12.30;99.90
52509;DHT22;38420;53.150;6.370;2022-07-04T01:27:19;12.30;99.90
52509;DHT22;38420;53.150;6.370;2022-07-04T01:29:44;12.20;99.90
52509;DHT22;38420;53.150;6.370;2022-07-04T01:32:10;12.20;99.90
52509;DHT22;38420;53.150;6.370;2022-07-04T01:34:35;12.20;99.90
52509;DHT22;38420;53.150;6.370;2022-07-04T01:37:01;12.20;99.90
52509;DHT22;38420;53.150;6.370;2022-07-04T01:39:28;12.10;99.90
52509;DHT22;38420;53.150;6.370;2022-07-04T01:41:53;12.10;99.90
52509;DHT22;38420;53.150;6.370;2022-07-04T01:44:19;12.10;99.90
52509;DHT22;38420;53.150;6.370;2022-07-04T01:46:45;12.10;99.90
52509;DHT22;38420;53.150;6.370;2022-07-04T01:49:10;12.10;99.90
52509;DHT22;38420;53.150;6.370;2022-07-04T01:51:42;12.10;99.90
52509;DHT22;38420;53.150;6.370;2022-07-04T01:54:08;12.20;99.90
52509;DHT22;38420;53.150;6.370;2022-07-04T01:56:33;12.00;99.90
52509;DHT22;38420;53.150;6.370;2022-07-04T01:58:59;12.10;99.90
52509;DHT22;38420;53.150;6.370;2022-07-04T02:01:26;12.10;99.90
52509;DHT22;38420;53.150;6.370;2022-07-04T02:03:58;12.10;99.90
52509;DHT22;38420;53.150;6.370;2022-07-04T02:06:24;12.00;99.90
52509;DHT22;38420;53.150;6.370;2022-07-04T02:08:50;12.10;99.90
52509;DHT22;38420;53.150;6.370;2022-07-04T02:11:34;12.00;99.90
52509;DHT22;38420;53.150;6.370;2022-07-04T02:14:18;12.10;99.90
52509;DHT22;38420;53.150;6.370;2022-07-04T02:16:43;12.00;99.90
52509;DHT22;38420;53.150;6.370;2022-07-04T02:19:09;12.00;99.90
52509;DHT22;38420;53.150;6.370;2022-07-04T02:21:35;12.00;99.90
52509;DHT22;38420;53.150;6.370;2022-07-04T02:24:00;12.00;99.90
52509;DHT22;38420;53.150;6.370;2022-07-04T02:26:26;12.00;99.90
52509;DHT22;38420;53.150;6.370;2022-07-04T02:28:51;11.90;99.90
52509;DHT22;38420;53.150;6.370;2022-07-04T02:31:17;12.00;99.90
52509;DHT22;38420;53.150;6.370;2022-07-04T02:33:42;12.00;99.90
52509;DHT22;38420;53.150;6.370;2022-07-04T02:36:08;12.10;99.90
52509;DHT22;38420;53.150;6.370;2022-07-04T02:38:33;12.10;99.90
52509;DHT22;38420;53.150;6.370;2022-07-04T02:40:59;12.10;99.90
52509;DHT22;38420;53.150;6.370;2022-07-04T02:43:24;12.00;99.90
52509;DHT22;38420;53.150;6.370;2022-07-04T02:45:50;12.10;99.90
52509;DHT22;38420;53.150;6.370;2022-07-04T02:48:15;12.10;99.90
52509;DHT22;38420;53.150;6.370;2022-07-04T02:50:41;12.10;99.90
52509;DHT22;38420;53.150;6.370;2022-07-04T02:53:06;12.00;99.90
52509;DHT22;38420;53.150;6.370;2022-07-04T02:55:32;12.00;99.90
52509;DHT22;38420;53.150;6.370;2022-07-04T02:57:57;12.00;99.90
52509;DHT22;38420;53.150;6.370;2022-07-04T03:00:23;12.00;99.90
52509;DHT22;38420;53.150;6.370;2022-07-04T03:02:48;12.10;99.90
52509;DHT22;38420;53.150;6.370;2022-07-04T03:05:14;12.10;99.90
52509;DHT22;38420;53.150;6.370;2022-07-04T03:07:39;12.10;99.90
52509;DHT22;38420;53.150;6.370;2022-07-04T03:10:05;12.20;99.90
52509;DHT22;38420;53.150;6.370;2022-07-04T03:12:30;12.10;99.90
52509;DHT22;38420;53.150;6.370;2022-07-04T03:14:56;12.20;99.90
52509;DHT22;38420;53.150;6.370;2022-07-04T03:17:24;12.20;99.90
52509;DHT22;38420;53.150;6.370;2022-07-04T03:19:50;12.20;99.90
52509;DHT22;38420;53.150;6.370;2022-07-04T03:22:16;12.20;99.90
52509;DHT22;38420;53.150;6.370;2022-07-04T03:24:41;12.20;99.90
52509;DHT22;38420;53.150;6.370;2022-07-04T03:27:07;12.30;99.90
52509;DHT22;38420;53.150;6.370;2022-07-04T03:29:32;12.30;99.90
52509;DHT22;38420;53.150;6.370;2022-07-04T03:31:58;12.30;99.90
52509;DHT22;38420;53.150;6.370;2022-07-04T03:34:23;12.30;99.90
52509;DHT22;38420;53.150;6.370;2022-07-04T03:36:49;12.20;99.90
52509;DHT22;38420;53.150;6.370;2022-07-04T03:39:14;12.10;99.90
52509;DHT22;38420;53.150;6.370;2022-07-04T03:41:40;12.20;99.90
52509;DHT22;38420;53.150;6.370;2022-07-04T03:44:05;12.20;99.90
52509;DHT22;38420;53.150;6.370;2022-07-04T03:46:31;12.20;99.90
52509;DHT22;38420;53.150;6.370;2022-07-04T03:48:56;12.10;99.90
52509;DHT22;38420;53.150;6.370;2022-07-04T03:51:22;12.20;99.90
52509;DHT22;38420;53.150;6.370;2022-07-04T03:53:48;12.10;99.90
52509;DHT22;38420;53.150;6.370;2022-07-04T03:56:14;12.20;99.90
52509;DHT22;38420;53.150;6.370;2022-07-04T03:58:39;12.20;99.90
52509;DHT22;38420;53.150;6.370;2022-07-04T04:01:08;12.10;99.90
52509;DHT22;38420;53.150;6.370;2022-07-04T04:03:33;12.20;99.90
52509;DHT22;38420;53.150;6.370;2022-07-04T04:06:17;12.20;99.90
52509;DHT22;38420;53.150;6.370;2022-07-04T04:08:43;12.20;99.90
52509;DHT22;38420;53.150;6.370;2022-07-04T04:11:08;12.10;99.90
52509;DHT22;38420;53.150;6.370;2022-07-04T04:13:34;12.20;99.90
52509;DHT22;38420;53.150;6.370;2022-07-04T04:15:59;12.20;99.90
52509;DHT22;38420;53.150;6.370;2022-07-04T04:18:25;12.70;99.90
52509;DHT22;38420;53.150;6.370;2022-07-04T04:20:50;12.20;99.90
52509;DHT22;38420;53.150;6.370;2022-07-04T04:23:16;12.30;99.90
52509;DHT22;38420;53.150;6.370;2022-07-04T04:25:41;12.40;99.90
52509;DHT22;38420;53.150;6.370;2022-07-04T04:28:07;12.30;99.90
52509;DHT22;38420;53.150;6.370;2022-07-04T04:30:32;12.50;99.90
52509;DHT22;38420;53.150;6.370;2022-07-04T04:32:58;12.50;99.90
52509;DHT22;38420;53.150;6.370;2022-07-04T04:35:24;12.60;99.90
52509;DHT22;38420;53.150;6.370;2022-07-04T04:37:49;12.60;99.90
52509;DHT22;38420;53.150;6.370;2022-07-04T04:40:15;12.70;99.90
52509;DHT22;38420;53.150;6.370;2022-07-04T04:42:40;12.70;99.90
52509;DHT22;38420;53.150;6.370;2022-07-04T04:45:06;12.70;99.90
52509;DHT22;38420;53.150;6.370;2022-07-04T04:47:31;12.90;99.90
52509;DHT22;38420;53.150;6.370;2022-07-04T04:49:57;12.80;99.90
52509;DHT22;38420;53.150;6.370;2022-07-04T04:52:23;12.80;99.90
52509;DHT22;38420;53.150;6.370;2022-07-04T04:54:48;12.90;99.90
52509;DHT22;38420;53.150;6.370;2022-07-04T04:57:14;12.90;99.90
52509;DHT22;38420;53.150;6.370;2022-07-04T04:59:39;13.00;99.90
52509;DHT22;38420;53.150;6.370;2022-07-04T05:02:05;13.10;99.90
52509;DHT22;38420;53.150;6.370;2022-07-04T05:04:30;13.10;99.90
52509;DHT22;38420;53.150;6.370;2022-07-04T05:06:56;13.10;99.90
52509;DHT22;38420;53.150;6.370;2022-07-04T05:09:24;13.20;99.90
52509;DHT22;38420;53.150;6.370;2022-07-04T05:11:49;13.30;99.90
52509;DHT22;38420;53.150;6.370;2022-07-04T05:14:15;13.30;99.90
52509;DHT22;38420;53.150;6.370;2022-07-04T05:16:41;13.30;99.90
52509;DHT22;38420;53.150;6.370;2022-07-04T05:19:07;13.40;99.90
52509;DHT22;38420;53.150;6.370;2022-07-04T05:21:32;13.40;99.90
52509;DHT22;38420;53.150;6.370;2022-07-04T05:23:58;13.50;99.90
52509;DHT22;38420;53.150;6.370;2022-07-04T05:26:23;13.60;99.90
52509;DHT22;38420;53.150;6.370;2022-07-04T05:28:49;13.60;99.90
52509;DHT22;38420;53.150;6.370;2022-07-04T05:31:14;13.60;99.90
52509;DHT22;38420;53.150;6.370;2022-07-04T05:33:40;13.80;99.90
52509;DHT22;38420;53.150;6.370;2022-07-04T05:36:05;13.80;99.90
52509;DHT22;38420;53.150;6.370;2022-07-04T05:38:31;13.90;99.90
52509;DHT22;38420;53.150;6.370;2022-07-04T05:40:57;14.00;99.90
52509;DHT22;38420;53.150;6.370;2022-07-04T05:43:22;14.00;99.90
52509;DHT22;38420;53.150;6.370;2022-07-04T05:45:50;14.10;99.90
52509;DHT22;38420;53.150;6.370;2022-07-04T05:48:16;14.10;99.90
52509;DHT22;38420;53.150;6.370;2022-07-04T05:50:41;14.30;99.90
52509;DHT22;38420;53.150;6.370;2022-07-04T05:53:07;14.40;99.90
52509;DHT22;38420;53.150;6.370;2022-07-04T05:55:32;14.50;99.90
52509;DHT22;38420;53.150;6.370;2022-07-04T05:57:59;14.70;99.90
52509;DHT22;38420;53.150;6.370;2022-07-04T06:00:25;14.70;99.90
52509;DHT22;38420;53.150;6.370;2022-07-04T06:02:51;14.80;99.90
52509;DHT22;38420;53.150;6.370;2022-07-04T06:05:16;14.90;99.90
52509;DHT22;38420;53.150;6.370;2022-07-04T06:07:42;14.90;99.90
52509;DHT22;38420;53.150;6.370;2022-07-04T06:10:07;15.00;99.90
52509;DHT22;38420;53.150;6.370;2022-07-04T06:12:33;15.10;99.90
52509;DHT22;38420;53.150;6.370;2022-07-04T06:14:59;15.20;99.90
52509;DHT22;38420;53.150;6.370;2022-07-04T06:17:25;15.30;99.90
52509;DHT22;38420;53.150;6.370;2022-07-04T06:19:50;15.40;99.90
52509;DHT22;38420;53.150;6.370;2022-07-04T06:22:16;15.50;99.90
52509;DHT22;38420;53.150;6.370;2022-07-04T06:24:41;15.70;99.90
52509;DHT22;38420;53.150;6.370;2022-07-04T06:27:07;15.80;99.90
52509;DHT22;38420;53.150;6.370;2022-07-04T06:29:32;15.90;99.90
52509;DHT22;38420;53.150;6.370;2022-07-04T06:31:58;16.00;99.90
52509;DHT22;38420;53.150;6.370;2022-07-04T06:34:23;16.10;99.90
52509;DHT22;38420;53.150;6.370;2022-07-04T06:37:08;16.20;99.90
52509;DHT22;38420;53.150;6.370;2022-07-04T06:39:33;16.20;99.90
52509;DHT22;38420;53.150;6.370;2022-07-04T06:41:59;16.30;99.90
52509;DHT22;38420;53.150;6.370;2022-07-04T06:44:24;16.40;99.90
52509;DHT22;38420;53.150;6.370;2022-07-04T06:46:50;16.40;99.90
52509;DHT22;38420;53.150;6.370;2022-07-04T06:49:16;16.40;99.90
52509;DHT22;38420;53.150;6.370;2022-07-04T06:51:42;16.50;99.90
52509;DHT22;38420;53.150;6.370;2022-07-04T06:54:07;16.70;99.90
52509;DHT22;38420;53.150;6.370;2022-07-04T06:56:33;16.80;99.90
52509;DHT22;38420;53.150;6.370;2022-07-04T06:58:58;16.90;99.90
52509;DHT22;38420;53.150;6.370;2022-07-04T07:01:23;17.00;99.90
52509;DHT22;38420;53.150;6.370;2022-07-04T07:03:49;17.20;99.90
52509;DHT22;38420;53.150;6.370;2022-07-04T07:06:15;17.20;99.90
52509;DHT22;38420;53.150;6.370;2022-07-04T07:08:41;17.40;99.90
52509;DHT22;38420;53.150;6.370;2022-07-04T07:11:06;17.40;99.90
52509;DHT22;38420;53.150;6.370;2022-07-04T07:13:48;17.50;99.90
52509;DHT22;38420;53.150;6.370;2022-07-04T07:16:13;17.50;99.90
52509;DHT22;38420;53.150;6.370;2022-07-04T07:18:39;17.60;99.90
52509;DHT22;38420;53.150;6.370;2022-07-04T07:21:05;17.60;99.90
52509;DHT22;38420;53.150;6.370;2022-07-04T07:23:30;17.80;99.90
52509;DHT22;38420;53.150;6.370;2022-07-04T07:25:56;17.70;99.90
52509;DHT22;38420;53.150;6.370;2022-07-04T07:28:21;18.00;99.90
52509;DHT22;38420;53.150;6.370;2022-07-04T07:30:47;18.00;99.90
52509;DHT22;38420;53.150;6.370;2022-07-04T07:33:12;18.10;99.90
52509;DHT22;38420;53.150;6.370;2022-07-04T07:35:38;18.30;99.90
52509;DHT22;38420;53.150;6.370;2022-07-04T07:38:03;18.30;99.90
52509;DHT22;38420;53.150;6.370;2022-07-04T07:40:29;18.30;99.90
52509;DHT22;38420;53.150;6.370;2022-07-04T07:42:55;18.20;99.90
52509;DHT22;38420;53.150;6.370;2022-07-04T07:45:20;18.10;99.90
52509;DHT22;38420;53.150;6.370;2022-07-04T07:47:46;18.00;99.90
52509;DHT22;38420;53.150;6.370;2022-07-04T07:50:12;17.90;99.90
52509;DHT22;38420;53.150;6.370;2022-07-04T07:52:37;17.70;99.90
52509;DHT22;38420;53.150;6.370;2022-07-04T07:55:03;17.60;99.90
52509;DHT22;38420;53.150;6.370;2022-07-04T07:57:29;17.60;99.90
52509;DHT22;38420;53.150;6.370;2022-07-04T07:59:55;17.50;99.90
52509;DHT22;38420;53.150;6.370;2022-07-04T08:02:21;17.40;99.90
52509;DHT22;38420;53.150;6.370;2022-07-04T08:05:07;17.40;99.90
52509;DHT22;38420;53.150;6.370;2022-07-04T08:07:32;17.30;99.90
52509;DHT22;38420;53.150;6.370;2022-07-04T08:09:58;17.30;99.90
52509;DHT22;38420;53.150;6.370;2022-07-04T08:12:23;17.20;99.90
52509;DHT22;38420;53.150;6.370;2022-07-04T08:14:49;17.20;99.90
52509;DHT22;38420;53.150;6.370;2022-07-04T08:17:14;17.20;99.90
52509;DHT22;38420;53.150;6.370;2022-07-04T08:19:40;17.20;99.90
52509;DHT22;38420;53.150;6.370;2022-07-04T08:22:05;17.20;99.90
52509;DHT22;38420;53.150;6.370;2022-07-04T08:24:31;17.20;99.90
52509;DHT22;38420;53.150;6.370;2022-07-04T08:26:56;17.30;99.90
52509;DHT22;38420;53.150;6.370;2022-07-04T08:29:21;17.30;99.90
52509;DHT22;38420;53.150;6.370;2022-07-04T08:31:47;17.30;99.90
52509;DHT22;38420;53.150;6.370;2022-07-04T08:34:13;17.40;99.90
52509;DHT22;38420;53.150;6.370;2022-07-04T08:36:38;17.50;99.90
52509;DHT22;38420;53.150;6.370;2022-07-04T08:39:04;17.50;99.90
52509;DHT22;38420;53.150;6.370;2022-07-04T08:41:33;17.90;99.90
52509;DHT22;38420;53.150;6.370;2022-07-04T08:44:00;18.80;99.90
52509;DHT22;38420;53.150;6.370;2022-07-04T08:46:26;19.60;99.90
52509;DHT22;38420;53.150;6.370;2022-07-04T08:48:52;20.40;99.90
52509;DHT22;38420;53.150;6.370;2022-07-04T08:51:25;21.20;99.90
52509;DHT22;38420;53.150;6.370;2022-07-04T08:53:56;21.70;99.90
52509;DHT22;38420;53.150;6.370;2022-07-04T08:56:22;21.70;99.90
52509;DHT22;38420;53.150;6.370;2022-07-04T08:59:06;21.80;99.90
52509;DHT22;38420;53.150;6.370;2022-07-04T09:01:33;21.10;99.90
52509;DHT22;38420;53.150;6.370;2022-07-04T09:03:58;20.50;99.90
52509;DHT22;38420;53.150;6.370;2022-07-04T09:06:25;20.20;99.90
52509;DHT22;38420;53.150;6.370;2022-07-04T09:08:52;19.90;99.90
52509;DHT22;38420;53.150;6.370;2022-07-04T09:11:18;20.10;99.90
52509;DHT22;38420;53.150;6.370;2022-07-04T09:13:44;20.70;99.90
52509;DHT22;38420;53.150;6.370;2022-07-04T09:16:09;21.40;99.90
52509;DHT22;38420;53.150;6.370;2022-07-04T09:18:35;21.50;99.90
52509;DHT22;38420;53.150;6.370;2022-07-04T09:21:02;21.20;99.90
52509;DHT22;38420;53.150;6.370;2022-07-04T09:23:29;20.70;99.90
52509;DHT22;38420;53.150;6.370;2022-07-04T09:26:14;20.20;99.90
52509;DHT22;38420;53.150;6.370;2022-07-04T09:28:43;19.90;99.90
52509;DHT22;38420;53.150;6.370;2022-07-04T09:31:13;19.60;99.90
52509;DHT22;38420;53.150;6.370;2022-07-04T09:33:46;19.40;99.90
52509;DHT22;38420;53.150;6.370;2022-07-04T09:36:15;19.40;99.90
52509;DHT22;38420;53.150;6.370;2022-07-04T09:38:41;19.60;99.90
52509;DHT22;38420;53.150;6.370;2022-07-04T09:41:07;19.90;99.90
52509;DHT22;38420;53.150;6.370;2022-07-04T09:46:25;20.30;99.90
52509;DHT22;38420;53.150;6.370;2022-07-04T09:48:51;20.50;99.90
52509;DHT22;38420;53.150;6.370;2022-07-04T09:56:46;20.30;99.90
52509;DHT22;38420;53.150;6.370;2022-07-04T09:59:11;20.30;99.90
52509;DHT22;38420;53.150;6.370;2022-07-04T10:01:37;20.40;99.90
52509;DHT22;38420;53.150;6.370;2022-07-04T10:04:07;20.40;99.90
52509;DHT22;38420;53.150;6.370;2022-07-04T10:06:34;20.60;99.90
52509;DHT22;38420;53.150;6.370;2022-07-04T10:09:13;20.70;99.90
52509;DHT22;38420;53.150;6.370;2022-07-04T10:11:39;20.80;99.90
52509;DHT22;38420;53.150;6.370;2022-07-04T10:14:06;20.80;99.90
52509;DHT22;38420;53.150;6.370;2022-07-04T10:16:32;20.80;99.90
52509;DHT22;38420;53.150;6.370;2022-07-04T10:18:58;20.90;99.90
52509;DHT22;38420;53.150;6.370;2022-07-04T10:21:23;21.00;99.90
52509;DHT22;38420;53.150;6.370;2022-07-04T10:23:50;21.10;99.90
52509;DHT22;38420;53.150;6.370;2022-07-04T10:26:20;21.20;99.90
52509;DHT22;38420;53.150;6.370;2022-07-04T10:28:45;21.20;99.90
52509;DHT22;38420;53.150;6.370;2022-07-04T10:31:12;21.00;99.90
52509;DHT22;38420;53.150;6.370;2022-07-04T10:33:39;20.60;99.90
52509;DHT22;38420;53.150;6.370;2022-07-04T10:36:12;20.60;99.90
52509;DHT22;38420;53.150;6.370;2022-07-04T10:41:13;20.90;99.90
52509;DHT22;38420;53.150;6.370;2022-07-04T10:46:29;20.80;99.90
52509;DHT22;38420;53.150;6.370;2022-07-04T10:48:59;20.70;99.90
52509;DHT22;38420;53.150;6.370;2022-07-04T10:54:07;20.60;99.90
52509;DHT22;38420;53.150;6.370;2022-07-04T10:59:09;20.20;99.90
52509;DHT22;38420;53.150;6.370;2022-07-04T11:01:35;20.20;99.90
52509;DHT22;38420;53.150;6.370;2022-07-04T11:04:00;20.30;99.90
52509;DHT22;38420;53.150;6.370;2022-07-04T11:14:32;20.30;99.90
52509;DHT22;38420;53.150;6.370;2022-07-04T11:16:57;20.30;99.90
52509;DHT22;38420;53.150;6.370;2022-07-04T11:19:23;20.50;99.90
52509;DHT22;38420;53.150;6.370;2022-07-04T11:21:48;20.80;99.90
52509;DHT22;38420;53.150;6.370;2022-07-04T11:24:14;20.90;99.90
52509;DHT22;38420;53.150;6.370;2022-07-04T11:26:39;20.90;99.90
52509;DHT22;38420;53.150;6.370;2022-07-04T11:29:05;20.80;99.90
52509;DHT22;38420;53.150;6.370;2022-07-04T11:31:37;20.60;99.90
52509;DHT22;38420;53.150;6.370;2022-07-04T11:34:03;20.50;99.90
52509;DHT22;38420;53.150;6.370;2022-07-04T11:36:28;20.50;99.90
52509;DHT22;38420;53.150;6.370;2022-07-04T11:39:01;20.70;99.90
52509;DHT22;38420;53.150;6.370;2022-07-04T11:41:27;20.80;99.90
52509;DHT22;38420;53.150;6.370;2022-07-04T11:44:13;21.00;99.90
52509;DHT22;38420;53.150;6.370;2022-07-04T11:47:01;20.90;99.90
52509;DHT22;38420;53.150;6.370;2022-07-04T11:49:27;20.80;99.90
52509;DHT22;38420;53.150;6.370;2022-07-04T11:51:52;20.70;99.90
52509;DHT22;38420;53.150;6.370;2022-07-04T11:54:20;20.80;99.90
52509;DHT22;38420;53.150;6.370;2022-07-04T11:56:46;20.70;99.90
52509;DHT22;38420;53.150;6.370;2022-07-04T11:59:13;20.70;99.90
52509;DHT22;38420;53.150;6.370;2022-07-04T12:01:39;20.80;99.90
52509;DHT22;38420;53.150;6.370;2022-07-04T12:04:11;21.00;99.90
52509;DHT22;38420;53.150;6.370;2022-07-04T12:06:37;21.20;99.90
52509;DHT22;38420;53.150;6.370;2022-07-04T12:09:02;21.10;99.90
52509;DHT22;38420;53.150;6.370;2022-07-04T12:14:13;21.20;99.90
52509;DHT22;38420;53.150;6.370;2022-07-04T12:16:38;21.10;99.90
52509;DHT22;38420;53.150;6.370;2022-07-04T12:19:10;21.00;99.90
52509;DHT22;38420;53.150;6.370;2022-07-04T12:21:36;21.20;99.90
52509;DHT22;38420;53.150;6.370;2022-07-04T12:24:01;21.30;99.90
52509;DHT22;38420;53.150;6.370;2022-07-04T12:26:30;21.30;99.90
52509;DHT22;38420;53.150;6.370;2022-07-04T12:28:56;21.00;99.90
52509;DHT22;38420;53.150;6.370;2022-07-04T12:31:38;20.90;99.90
52509;DHT22;38420;53.150;6.370;2022-07-04T12:34:12;20.90;99.90
52509;DHT22;38420;53.150;6.370;2022-07-04T12:37:12;21.00;99.90
52509;DHT22;38420;53.150;6.370;2022-07-04T12:39:33;21.20;99.90
52509;DHT22;38420;53.150;6.370;2022-07-04T12:42:15;21.30;99.90
52509;DHT22;38420;53.150;6.370;2022-07-04T12:44:42;21.30;99.90
52509;DHT22;38420;53.150;6.370;2022-07-04T12:47:09;21.00;99.90
52509;DHT22;38420;53.150;6.370;2022-07-04T12:49:34;20.80;99.90
52509;DHT22;38420;53.150;6.370;2022-07-04T12:52:04;20.90;99.90
52509;DHT22;38420;53.150;6.370;2022-07-04T12:54:33;21.00;99.90
52509;DHT22;38420;53.150;6.370;2022-07-04T12:57:06;21.00;99.90
52509;DHT22;38420;53.150;6.370;2022-07-04T12:59:31;20.80;99.90
52509;DHT22;38420;53.150;6.370;2022-07-04T13:01:57;20.80;99.90
52509;DHT22;38420;53.150;6.370;2022-07-04T13:04:22;21.00;99.90
52509;DHT22;38420;53.150;6.370;2022-07-04T13:06:48;21.20;99.90
52509;DHT22;38420;53.150;6.370;2022-07-04T13:09:13;21.20;99.90
52509;DHT22;38420;53.150;6.370;2022-07-04T13:11:39;21.00;99.90
52509;DHT22;38420;53.150;6.370;2022-07-04T13:14:23;20.70;99.90
52509;DHT22;38420;53.150;6.370;2022-07-04T13:16:49;20.40;99.90
52509;DHT22;38420;53.150;6.370;2022-07-04T13:19:14;20.40;99.50
52509;DHT22;38420;53.150;6.370;2022-07-04T13:21:42;20.40;99.90
52509;DHT22;38420;53.150;6.370;2022-07-04T13:24:07;20.60;99.90
52509;DHT22;38420;53.150;6.370;2022-07-04T13:26:33;20.70;99.90
52509;DHT22;38420;53.150;6.370;2022-07-04T13:28:58;20.90;99.90
52509;DHT22;38420;53.150;6.370;2022-07-04T13:31:26;20.80;99.90
52509;DHT22;38420;53.150;6.370;2022-07-04T13:33:55;20.80;99.90
52509;DHT22;38420;53.150;6.370;2022-07-04T13:36:21;20.70;99.90
52509;DHT22;38420;53.150;6.370;2022-07-04T13:38:46;20.70;99.90
52509;DHT22;38420;53.150;6.370;2022-07-04T13:41:12;20.80;99.90
52509;DHT22;38420;53.150;6.370;2022-07-04T13:43:37;20.90;99.90
52509;DHT22;38420;53.150;6.370;2022-07-04T13:46:03;21.00;99.90
52509;DHT22;38420;53.150;6.370;2022-07-04T13:48:29;20.90;99.90
52509;DHT22;38420;53.150;6.370;2022-07-04T13:50:55;20.90;99.90
52509;DHT22;38420;53.150;6.370;2022-07-04T13:53:20;20.90;99.90
52509;DHT22;38420;53.150;6.370;2022-07-04T13:55:46;20.50;99.90
52509;DHT22;38420;53.150;6.370;2022-07-04T13:58:11;20.20;99.90
52509;DHT22;38420;53.150;6.370;2022-07-04T14:00:37;20.10;99.90
52509;DHT22;38420;53.150;6.370;2022-07-04T14:03:03;20.10;99.90
52509;DHT22;38420;53.150;6.370;2022-07-04T14:05:29;20.20;99.90
52509;DHT22;38420;53.150;6.370;2022-07-04T14:07:55;20.30;99.90
52509;DHT22;38420;53.150;6.370;2022-07-04T14:10:21;20.50;99.90
52509;DHT22;38420;53.150;6.370;2022-07-04T14:12:46;20.50;99.90
52509;DHT22;38420;53.150;6.370;2022-07-04T14:15:12;20.50;99.90
52509;DHT22;38420;53.150;6.370;2022-07-04T14:17:38;20.40;99.90
52509;DHT22;38420;53.150;6.370;2022-07-04T14:20:04;20.20;99.90
52509;DHT22;38420;53.150;6.370;2022-07-04T14:22:31;20.10;99.90
52509;DHT22;38420;53.150;6.370;2022-07-04T14:24:56;20.00;99.90
52509;DHT22;38420;53.150;6.370;2022-07-04T14:27:21;20.10;99.90
52509;DHT22;38420;53.150;6.370;2022-07-04T14:29:47;20.10;99.90
52509;DHT22;38420;53.150;6.370;2022-07-04T14:32:13;20.20;99.90
52509;DHT22;38420;53.150;6.370;2022-07-04T14:34:38;20.40;99.90
52509;DHT22;38420;53.150;6.370;2022-07-04T14:37:04;20.50;99.90
52509;DHT22;38420;53.150;6.370;2022-07-04T14:39:29;20.40;99.90
52509;DHT22;38420;53.150;6.370;2022-07-04T14:41:55;20.40;99.90
52509;DHT22;38420;53.150;6.370;2022-07-04T14:44:20;20.20;99.90
52509;DHT22;38420;53.150;6.370;2022-07-04T14:46:46;20.10;99.90
52509;DHT22;38420;53.150;6.370;2022-07-04T14:49:11;20.30;99.90
52509;DHT22;38420;53.150;6.370;2022-07-04T14:51:37;20.30;99.90
52509;DHT22;38420;53.150;6.370;2022-07-04T14:54:08;20.30;99.90
52509;DHT22;38420;53.150;6.370;2022-07-04T14:56:34;20.10;99.90
52509;DHT22;38420;53.150;6.370;2022-07-04T14:59:00;20.10;99.90
52509;DHT22;38420;53.150;6.370;2022-07-04T15:01:26;20.20;99.90
52509;DHT22;38420;53.150;6.370;2022-07-04T15:03:52;20.20;99.90
52509;DHT22;38420;53.150;6.370;2022-07-04T15:06:18;20.20;99.90
52509;DHT22;38420;53.150;6.370;2022-07-04T15:08:43;20.20;99.90
52509;DHT22;38420;53.150;6.370;2022-07-04T15:11:09;20.10;99.90
52509;DHT22;38420;53.150;6.370;2022-07-04T15:13:34;20.20;99.90
52509;DHT22;38420;53.150;6.370;2022-07-04T15:16:00;20.20;99.90
52509;DHT22;38420;53.150;6.370;2022-07-04T15:18:25;20.10;99.90
52509;DHT22;38420;53.150;6.370;2022-07-04T15:20:51;20.10;99.90
52509;DHT22;38420;53.150;6.370;2022-07-04T15:23:35;20.10;99.90
52509;DHT22;38420;53.150;6.370;2022-07-04T15:26:19;20.00;99.90
52509;DHT22;38420;53.150;6.370;2022-07-04T15:28:44;20.10;99.90
52509;DHT22;38420;53.150;6.370;2022-07-04T15:31:10;20.20;99.90
52509;DHT22;38420;53.150;6.370;2022-07-04T15:33:38;20.30;99.90
52509;DHT22;38420;53.150;6.370;2022-07-04T15:36:04;20.20;99.50
52509;DHT22;38420;53.150;6.370;2022-07-04T15:38:30;20.20;99.90
52509;DHT22;38420;53.150;6.370;2022-07-04T15:40:55;20.10;99.90
52509;DHT22;38420;53.150;6.370;2022-07-04T15:43:21;20.00;99.90
52509;DHT22;38420;53.150;6.370;2022-07-04T15:45:46;20.00;99.90
52509;DHT22;38420;53.150;6.370;2022-07-04T15:48:12;19.90;99.90
52509;DHT22;38420;53.150;6.370;2022-07-04T15:50:37;19.90;99.90
52509;DHT22;38420;53.150;6.370;2022-07-04T15:53:03;19.80;99.90
52509;DHT22;38420;53.150;6.370;2022-07-04T15:55:28;19.80;99.90
52509;DHT22;38420;53.150;6.370;2022-07-04T15:57:54;19.70;99.90